Terminal Aerodrome Forecast
Issued by NWS

Current Version | Previous Version | Text Only | Print | Product List | Glossary On
Versions: 1 2 3 4 5 6 7 8 9 10 11 12 13 14 15 16
000
FTUS45 KFGZ 012330
TAFSEZ
TAF
KSEZ 012330Z 0200/0224 20010KT P6SM FEW090 FEW250
     FM020200 04006KT P6SM FEW250
     FM022000 19010KT P6SM SCT060 SCT250
      AMD NOT SKED=

USA.gov is the U.S. government's official web portal to all federal, state and local government web resources and services.